sensor_id;sensor_type;location;lat;lon;timestamp;temperature;humidity
20610;DHT22;10463;52.378;9.688;2023-04-03T00:01:17;23.20;21.80
20610;DHT22;10463;52.378;9.688;2023-04-03T00:04:01;23.10;21.70
20610;DHT22;10463;52.378;9.688;2023-04-03T00:06:46;23.20;21.80
20610;DHT22;10463;52.378;9.688;2023-04-03T00:09:30;23.10;21.80
20610;DHT22;10463;52.378;9.688;2023-04-03T00:12:15;23.10;21.70
20610;DHT22;10463;52.378;9.688;2023-04-03T00:15:01;23.10;21.80
20610;DHT22;10463;52.378;9.688;2023-04-03T00:17:46;23.10;21.80
20610;DHT22;10463;52.378;9.688;2023-04-03T00:20:31;23.20;21.80
20610;DHT22;10463;52.378;9.688;2023-04-03T00:23:16;23.00;21.70
20610;DHT22;10463;52.378;9.688;2023-04-03T00:26:01;23.10;21.80
20610;DHT22;10463;52.378;9.688;2023-04-03T00:28:46;23.10;21.80
20610;DHT22;10463;52.378;9.688;2023-04-03T00:31:32;23.10;21.80
20610;DHT22;10463;52.378;9.688;2023-04-03T00:34:17;23.00;21.70
20610;DHT22;10463;52.378;9.688;2023-04-03T00:37:01;23.00;21.70
20610;DHT22;10463;52.378;9.688;2023-04-03T00:39:46;23.00;21.70
20610;DHT22;10463;52.378;9.688;2023-04-03T00:42:31;23.00;21.70
20610;DHT22;10463;52.378;9.688;2023-04-03T00:45:33;23.00;21.70
20610;DHT22;10463;52.378;9.688;2023-04-03T00:48:26;23.00;21.80
20610;DHT22;10463;52.378;9.688;2023-04-03T00:51:16;23.00;21.80
20610;DHT22;10463;52.378;9.688;2023-04-03T00:54:05;22.90;21.70
20610;DHT22;10463;52.378;9.688;2023-04-03T00:56:51;22.90;21.70
20610;DHT22;10463;52.378;9.688;2023-04-03T00:59:41;22.90;21.70
20610;DHT22;10463;52.378;9.688;2023-04-03T01:02:28;22.90;21.70
20610;DHT22;10463;52.378;9.688;2023-04-03T01:05:16;22.90;21.80
20610;DHT22;10463;52.378;9.688;2023-04-03T01:08:02;22.90;21.70
20610;DHT22;10463;52.378;9.688;2023-04-03T01:10:46;22.90;21.80
20610;DHT22;10463;52.378;9.688;2023-04-03T01:13:33;22.90;21.80
20610;DHT22;10463;52.378;9.688;2023-04-03T01:16:18;22.90;21.80
20610;DHT22;10463;52.378;9.688;2023-04-03T01:19:03;22.80;21.70
20610;DHT22;10463;52.378;9.688;2023-04-03T01:22:10;22.80;21.70
20610;DHT22;10463;52.378;9.688;2023-04-03T01:24:59;22.80;21.80
20610;DHT22;10463;52.378;9.688;2023-04-03T01:27:44;22.80;21.70
20610;DHT22;10463;52.378;9.688;2023-04-03T01:30:33;22.80;21.70
20610;DHT22;10463;52.378;9.688;2023-04-03T01:33:20;22.80;21.80
20610;DHT22;10463;52.378;9.688;2023-04-03T01:36:10;22.80;21.80
20610;DHT22;10463;52.378;9.688;2023-04-03T01:38:56;22.70;21.70
20610;DHT22;10463;52.378;9.688;2023-04-03T01:41:41;22.70;21.70
20610;DHT22;10463;52.378;9.688;2023-04-03T01:44:32;22.70;21.70
20610;DHT22;10463;52.378;9.688;2023-04-03T01:47:17;22.70;21.70
20610;DHT22;10463;52.378;9.688;2023-04-03T01:50:03;22.70;21.80
20610;DHT22;10463;52.378;9.688;2023-04-03T01:52:51;22.70;21.70
20610;DHT22;10463;52.378;9.688;2023-04-03T01:55:36;22.70;21.70
20610;DHT22;10463;52.378;9.688;2023-04-03T01:58:20;22.70;21.80
20610;DHT22;10463;52.378;9.688;2023-04-03T02:01:07;22.70;21.80
20610;DHT22;10463;52.378;9.688;2023-04-03T02:03:52;22.60;21.70
20610;DHT22;10463;52.378;9.688;2023-04-03T02:06:37;22.60;21.70
20610;DHT22;10463;52.378;9.688;2023-04-03T02:09:22;22.60;21.70
20610;DHT22;10463;52.378;9.688;2023-04-03T02:12:07;22.60;21.70
20610;DHT22;10463;52.378;9.688;2023-04-03T02:14:52;22.60;21.70
20610;DHT22;10463;52.378;9.688;2023-04-03T02:17:38;22.60;21.70
20610;DHT22;10463;52.378;9.688;2023-04-03T02:20:23;22.60;21.70
20610;DHT22;10463;52.378;9.688;2023-04-03T02:23:09;22.60;21.80
20610;DHT22;10463;52.378;9.688;2023-04-03T02:26:04;22.60;21.80
20610;DHT22;10463;52.378;9.688;2023-04-03T02:28:49;22.60;21.80
20610;DHT22;10463;52.378;9.688;2023-04-03T02:31:33;22.50;21.70
20610;DHT22;10463;52.378;9.688;2023-04-03T02:34:20;22.50;21.70
20610;DHT22;10463;52.378;9.688;2023-04-03T02:37:06;22.50;21.70
20610;DHT22;10463;52.378;9.688;2023-04-03T02:39:52;22.50;21.70
20610;DHT22;10463;52.378;9.688;2023-04-03T02:42:37;22.50;21.70
20610;DHT22;10463;52.378;9.688;2023-04-03T02:45:23;22.50;21.70
20610;DHT22;10463;52.378;9.688;2023-04-03T02:48:08;22.50;21.80
20610;DHT22;10463;52.378;9.688;2023-04-03T02:50:53;22.50;21.70
20610;DHT22;10463;52.378;9.688;2023-04-03T02:53:38;22.50;21.70
20610;DHT22;10463;52.378;9.688;2023-04-03T02:56:30;22.50;21.70
20610;DHT22;10463;52.378;9.688;2023-04-03T02:59:15;22.40;21.70
20610;DHT22;10463;52.378;9.688;2023-04-03T03:02:03;22.40;21.70
20610;DHT22;10463;52.378;9.688;2023-04-03T03:04:47;22.40;21.70
20610;DHT22;10463;52.378;9.688;2023-04-03T03:07:32;22.40;21.70
20610;DHT22;10463;52.378;9.688;2023-04-03T03:10:18;22.40;21.70
20610;DHT22;10463;52.378;9.688;2023-04-03T03:13:05;22.40;21.70
20610;DHT22;10463;52.378;9.688;2023-04-03T03:15:50;22.40;21.70
20610;DHT22;10463;52.378;9.688;2023-04-03T03:18:34;22.40;22.20
20610;DHT22;10463;52.378;9.688;2023-04-03T03:21:19;22.40;21.70
20610;DHT22;10463;52.378;9.688;2023-04-03T03:24:05;22.40;21.70
20610;DHT22;10463;52.378;9.688;2023-04-03T03:26:51;22.40;21.70
20610;DHT22;10463;52.378;9.688;2023-04-03T03:29:37;22.30;21.60
20610;DHT22;10463;52.378;9.688;2023-04-03T03:32:22;22.30;21.70
20610;DHT22;10463;52.378;9.688;2023-04-03T03:35:08;22.30;21.70
20610;DHT22;10463;52.378;9.688;2023-04-03T03:37:53;22.30;21.70
20610;DHT22;10463;52.378;9.688;2023-04-03T03:40:38;22.30;21.70
20610;DHT22;10463;52.378;9.688;2023-04-03T03:43:24;22.30;21.70
20610;DHT22;10463;52.378;9.688;2023-04-03T03:46:12;22.30;21.70
20610;DHT22;10463;52.378;9.688;2023-04-03T03:48:57;22.30;21.70
20610;DHT22;10463;52.378;9.688;2023-04-03T03:51:42;22.30;21.70
20610;DHT22;10463;52.378;9.688;2023-04-03T03:54:26;22.30;21.70
20610;DHT22;10463;52.378;9.688;2023-04-03T03:57:11;22.30;21.70
20610;DHT22;10463;52.378;9.688;2023-04-03T03:59:56;22.20;21.60
20610;DHT22;10463;52.378;9.688;2023-04-03T04:02:43;22.20;21.60
20610;DHT22;10463;52.378;9.688;2023-04-03T04:05:32;22.20;21.60
20610;DHT22;10463;52.378;9.688;2023-04-03T04:08:18;22.20;21.60
20610;DHT22;10463;52.378;9.688;2023-04-03T04:11:04;22.20;21.60
20610;DHT22;10463;52.378;9.688;2023-04-03T04:13:49;22.20;21.60
20610;DHT22;10463;52.378;9.688;2023-04-03T04:16:36;22.20;21.60
20610;DHT22;10463;52.378;9.688;2023-04-03T04:19:28;22.20;21.60
20610;DHT22;10463;52.378;9.688;2023-04-03T04:22:13;22.20;21.60
20610;DHT22;10463;52.378;9.688;2023-04-03T04:24:58;22.20;21.60
20610;DHT22;10463;52.378;9.688;2023-04-03T04:27:43;22.20;21.60
20610;DHT22;10463;52.378;9.688;2023-04-03T04:30:30;22.20;21.60
20610;DHT22;10463;52.378;9.688;2023-04-03T04:33:16;22.20;21.60
20610;DHT22;10463;52.378;9.688;2023-04-03T04:36:04;22.20;21.70
20610;DHT22;10463;52.378;9.688;2023-04-03T04:38:50;22.10;21.60
20610;DHT22;10463;52.378;9.688;2023-04-03T04:41:39;22.20;21.70
20610;DHT22;10463;52.378;9.688;2023-04-03T04:44:24;22.10;21.60
20610;DHT22;10463;52.378;9.688;2023-04-03T04:47:09;22.10;21.60
20610;DHT22;10463;52.378;9.688;2023-04-03T04:49:55;22.10;21.60
20610;DHT22;10463;52.378;9.688;2023-04-03T04:52:41;22.10;21.60
20610;DHT22;10463;52.378;9.688;2023-04-03T04:55:26;22.10;21.60
20610;DHT22;10463;52.378;9.688;2023-04-03T04:58:11;22.10;21.60
20610;DHT22;10463;52.378;9.688;2023-04-03T05:00:59;22.10;21.60
20610;DHT22;10463;52.378;9.688;2023-04-03T05:03:45;22.10;21.60
20610;DHT22;10463;52.378;9.688;2023-04-03T05:06:30;22.10;21.60
20610;DHT22;10463;52.378;9.688;2023-04-03T05:09:19;22.10;21.60
20610;DHT22;10463;52.378;9.688;2023-04-03T05:12:05;22.00;21.50
20610;DHT22;10463;52.378;9.688;2023-04-03T05:14:56;22.10;21.60
20610;DHT22;10463;52.378;9.688;2023-04-03T05:17:41;22.00;21.50
20610;DHT22;10463;52.378;9.688;2023-04-03T05:20:30;22.00;21.50
20610;DHT22;10463;52.378;9.688;2023-04-03T05:23:15;22.10;21.60
20610;DHT22;10463;52.378;9.688;2023-04-03T05:26:02;22.00;21.50
20610;DHT22;10463;52.378;9.688;2023-04-03T05:28:47;22.00;21.50
20610;DHT22;10463;52.378;9.688;2023-04-03T05:31:33;22.00;21.60
20610;DHT22;10463;52.378;9.688;2023-04-03T05:34:19;22.00;21.60
20610;DHT22;10463;52.378;9.688;2023-04-03T05:37:06;22.00;21.50
20610;DHT22;10463;52.378;9.688;2023-04-03T05:39:51;22.00;21.60
20610;DHT22;10463;52.378;9.688;2023-04-03T05:42:38;22.00;21.60
20610;DHT22;10463;52.378;9.688;2023-04-03T05:45:24;22.00;21.60
20610;DHT22;10463;52.378;9.688;2023-04-03T05:48:09;22.00;21.60
20610;DHT22;10463;52.378;9.688;2023-04-03T05:50:56;22.00;21.60
20610;DHT22;10463;52.378;9.688;2023-04-03T05:53:43;22.00;21.60
20610;DHT22;10463;52.378;9.688;2023-04-03T05:56:30;22.00;21.60
20610;DHT22;10463;52.378;9.688;2023-04-03T05:59:16;21.90;21.50
20610;DHT22;10463;52.378;9.688;2023-04-03T06:02:02;21.90;21.50
20610;DHT22;10463;52.378;9.688;2023-04-03T06:04:47;22.00;21.60
20610;DHT22;10463;52.378;9.688;2023-04-03T06:07:33;21.90;21.50
20610;DHT22;10463;52.378;9.688;2023-04-03T06:10:18;22.00;21.60
20610;DHT22;10463;52.378;9.688;2023-04-03T06:13:03;21.90;21.50
20610;DHT22;10463;52.378;9.688;2023-04-03T06:15:49;21.90;21.50
20610;DHT22;10463;52.378;9.688;2023-04-03T06:18:34;21.90;21.50
20610;DHT22;10463;52.378;9.688;2023-04-03T06:21:20;21.90;21.50
20610;DHT22;10463;52.378;9.688;2023-04-03T06:24:06;21.90;21.50
20610;DHT22;10463;52.378;9.688;2023-04-03T06:26:51;21.90;21.60
20610;DHT22;10463;52.378;9.688;2023-04-03T06:29:36;21.90;21.50
20610;DHT22;10463;52.378;9.688;2023-04-03T06:32:23;21.90;21.60
20610;DHT22;10463;52.378;9.688;2023-04-03T06:35:09;21.90;21.60
20610;DHT22;10463;52.378;9.688;2023-04-03T06:37:53;21.90;21.60
20610;DHT22;10463;52.378;9.688;2023-04-03T06:40:38;21.90;21.60
20610;DHT22;10463;52.378;9.688;2023-04-03T06:43:23;21.90;21.60
20610;DHT22;10463;52.378;9.688;2023-04-03T06:46:14;21.90;21.60
20610;DHT22;10463;52.378;9.688;2023-04-03T06:49:01;21.90;21.60
20610;DHT22;10463;52.378;9.688;2023-04-03T06:51:46;21.90;21.60
20610;DHT22;10463;52.378;9.688;2023-04-03T06:54:31;21.90;21.60
20610;DHT22;10463;52.378;9.688;2023-04-03T06:57:16;21.90;21.60
20610;DHT22;10463;52.378;9.688;2023-04-03T07:00:00;21.90;21.60
20610;DHT22;10463;52.378;9.688;2023-04-03T07:02:45;21.90;21.60
20610;DHT22;10463;52.378;9.688;2023-04-03T07:05:33;21.90;22.10
20610;DHT22;10463;52.378;9.688;2023-04-03T07:08:17;21.90;21.60
20610;DHT22;10463;52.378;9.688;2023-04-03T07:11:02;21.90;21.60
20610;DHT22;10463;52.378;9.688;2023-04-03T07:13:47;21.90;21.60
20610;DHT22;10463;52.378;9.688;2023-04-03T07:16:33;21.90;21.60
20610;DHT22;10463;52.378;9.688;2023-04-03T07:19:18;21.80;21.60
20610;DHT22;10463;52.378;9.688;2023-04-03T07:22:04;21.80;21.60
20610;DHT22;10463;52.378;9.688;2023-04-03T07:24:51;21.90;21.70
20610;DHT22;10463;52.378;9.688;2023-04-03T07:27:35;21.80;21.60
20610;DHT22;10463;52.378;9.688;2023-04-03T07:30:21;21.80;21.60
20610;DHT22;10463;52.378;9.688;2023-04-03T07:33:05;21.80;21.60
20610;DHT22;10463;52.378;9.688;2023-04-03T07:35:50;21.80;21.60
20610;DHT22;10463;52.378;9.688;2023-04-03T07:38:37;21.90;21.70
20610;DHT22;10463;52.378;9.688;2023-04-03T07:41:22;21.90;21.70
20610;DHT22;10463;52.378;9.688;2023-04-03T07:44:07;21.80;21.60
20610;DHT22;10463;52.378;9.688;2023-04-03T07:46:54;21.90;21.70
20610;DHT22;10463;52.378;9.688;2023-04-03T07:49:42;21.90;21.70
20610;DHT22;10463;52.378;9.688;2023-04-03T07:52:28;21.80;21.60
20610;DHT22;10463;52.378;9.688;2023-04-03T07:55:14;21.80;21.60
20610;DHT22;10463;52.378;9.688;2023-04-03T07:57:59;21.90;21.70
20610;DHT22;10463;52.378;9.688;2023-04-03T08:00:44;21.90;21.70
20610;DHT22;10463;52.378;9.688;2023-04-03T08:03:29;21.80;21.60
20610;DHT22;10463;52.378;9.688;2023-04-03T08:06:13;21.80;21.60
20610;DHT22;10463;52.378;9.688;2023-04-03T08:08:59;21.80;21.60
20610;DHT22;10463;52.378;9.688;2023-04-03T08:11:45;21.80;21.60
20610;DHT22;10463;52.378;9.688;2023-04-03T08:14:31;21.80;21.60
20610;DHT22;10463;52.378;9.688;2023-04-03T08:17:19;21.80;21.60
20610;DHT22;10463;52.378;9.688;2023-04-03T08:20:05;21.80;21.60
20610;DHT22;10463;52.378;9.688;2023-04-03T08:22:51;21.80;21.60
20610;DHT22;10463;52.378;9.688;2023-04-03T08:25:38;21.90;21.70
20610;DHT22;10463;52.378;9.688;2023-04-03T08:28:24;21.80;21.70
20610;DHT22;10463;52.378;9.688;2023-04-03T08:31:12;21.90;21.70
20610;DHT22;10463;52.378;9.688;2023-04-03T08:33:58;21.80;21.70
20610;DHT22;10463;52.378;9.688;2023-04-03T08:36:43;21.90;21.70
20610;DHT22;10463;52.378;9.688;2023-04-03T08:39:28;21.80;21.70
20610;DHT22;10463;52.378;9.688;2023-04-03T08:42:19;21.80;21.60
20610;DHT22;10463;52.378;9.688;2023-04-03T08:45:13;21.90;21.70
20610;DHT22;10463;52.378;9.688;2023-04-03T08:48:05;21.90;21.70
20610;DHT22;10463;52.378;9.688;2023-04-03T08:50:55;21.80;21.60
20610;DHT22;10463;52.378;9.688;2023-04-03T08:53:46;21.90;21.70
20610;DHT22;10463;52.378;9.688;2023-04-03T08:56:36;21.90;21.70
20610;DHT22;10463;52.378;9.688;2023-04-03T08:59:28;21.90;21.70
20610;DHT22;10463;52.378;9.688;2023-04-03T09:02:27;21.90;21.70
20610;DHT22;10463;52.378;9.688;2023-04-03T09:05:18;21.90;21.70
20610;DHT22;10463;52.378;9.688;2023-04-03T09:08:09;21.90;21.70
20610;DHT22;10463;52.378;9.688;2023-04-03T09:11:09;21.90;21.70
20610;DHT22;10463;52.378;9.688;2023-04-03T09:14:02;21.90;21.70
20610;DHT22;10463;52.378;9.688;2023-04-03T09:16:54;21.90;21.70
20610;DHT22;10463;52.378;9.688;2023-04-03T09:19:48;21.90;21.70
20610;DHT22;10463;52.378;9.688;2023-04-03T09:22:36;21.90;21.70
20610;DHT22;10463;52.378;9.688;2023-04-03T09:25:27;21.90;21.70
20610;DHT22;10463;52.378;9.688;2023-04-03T09:28:12;21.90;21.70
20610;DHT22;10463;52.378;9.688;2023-04-03T09:30:57;21.90;21.70
20610;DHT22;10463;52.378;9.688;2023-04-03T09:33:44;21.90;21.70
20610;DHT22;10463;52.378;9.688;2023-04-03T09:36:43;21.90;21.70
20610;DHT22;10463;52.378;9.688;2023-04-03T09:39:29;21.90;21.70
20610;DHT22;10463;52.378;9.688;2023-04-03T09:42:19;21.90;21.70
20610;DHT22;10463;52.378;9.688;2023-04-03T09:45:18;21.90;21.70
20610;DHT22;10463;52.378;9.688;2023-04-03T09:48:12;22.00;21.80
20610;DHT22;10463;52.378;9.688;2023-04-03T09:51:01;22.00;21.80
20610;DHT22;10463;52.378;9.688;2023-04-03T09:53:48;22.00;21.80
20610;DHT22;10463;52.378;9.688;2023-04-03T09:56:33;22.00;21.80
20610;DHT22;10463;52.378;9.688;2023-04-03T09:59:19;22.00;21.80
20610;DHT22;10463;52.378;9.688;2023-04-03T10:02:22;22.00;21.80
20610;DHT22;10463;52.378;9.688;2023-04-03T10:05:34;22.00;21.80
20610;DHT22;10463;52.378;9.688;2023-04-03T10:08:23;22.00;21.80
20610;DHT22;10463;52.378;9.688;2023-04-03T10:11:14;22.00;21.70
20610;DHT22;10463;52.378;9.688;2023-04-03T10:14:01;22.00;21.70
20610;DHT22;10463;52.378;9.688;2023-04-03T10:16:54;22.10;21.80
20610;DHT22;10463;52.378;9.688;2023-04-03T10:19:44;22.10;21.80
20610;DHT22;10463;52.378;9.688;2023-04-03T10:22:39;22.10;21.80
20610;DHT22;10463;52.378;9.688;2023-04-03T10:25:32;22.10;21.80
20610;DHT22;10463;52.378;9.688;2023-04-03T10:28:24;22.10;21.90
20610;DHT22;10463;52.378;9.688;2023-04-03T10:31:17;22.10;21.80
20610;DHT22;10463;52.378;9.688;2023-04-03T10:34:14;22.10;21.70
20610;DHT22;10463;52.378;9.688;2023-04-03T10:37:10;22.10;21.70
20610;DHT22;10463;52.378;9.688;2023-04-03T10:40:01;22.10;21.70
20610;DHT22;10463;52.378;9.688;2023-04-03T10:42:53;22.10;21.70
20610;DHT22;10463;52.378;9.688;2023-04-03T10:46:06;22.10;21.70
20610;DHT22;10463;52.378;9.688;2023-04-03T10:49:07;22.10;21.70
20610;DHT22;10463;52.378;9.688;2023-04-03T10:52:02;22.10;21.70
20610;DHT22;10463;52.378;9.688;2023-04-03T10:55:01;22.20;21.70
20610;DHT22;10463;52.378;9.688;2023-04-03T10:57:47;22.20;21.70
20610;DHT22;10463;52.378;9.688;2023-04-03T11:00:40;22.20;21.80
20610;DHT22;10463;52.378;9.688;2023-04-03T11:03:31;22.20;21.70
20610;DHT22;10463;52.378;9.688;2023-04-03T11:06:21;22.20;21.70
20610;DHT22;10463;52.378;9.688;2023-04-03T11:09:18;22.20;21.70
20610;DHT22;10463;52.378;9.688;2023-04-03T11:12:11;22.20;21.70
20610;DHT22;10463;52.378;9.688;2023-04-03T11:14:57;22.20;21.70
20610;DHT22;10463;52.378;9.688;2023-04-03T11:17:48;22.20;21.70
20610;DHT22;10463;52.378;9.688;2023-04-03T11:20:36;22.20;21.70
20610;DHT22;10463;52.378;9.688;2023-04-03T11:23:25;22.20;21.70
20610;DHT22;10463;52.378;9.688;2023-04-03T11:26:12;22.30;21.80
20610;DHT22;10463;52.378;9.688;2023-04-03T11:29:02;22.20;21.70
20610;DHT22;10463;52.378;9.688;2023-04-03T11:32:08;22.20;21.70
20610;DHT22;10463;52.378;9.688;2023-04-03T11:34:57;22.20;21.70
20610;DHT22;10463;52.378;9.688;2023-04-03T11:37:47;22.20;21.70
20610;DHT22;10463;52.378;9.688;2023-04-03T11:40:35;22.20;21.70
20610;DHT22;10463;52.378;9.688;2023-04-03T11:43:24;22.30;21.80
20610;DHT22;10463;52.378;9.688;2023-04-03T11:46:10;22.30;21.80
20610;DHT22;10463;52.378;9.688;2023-04-03T11:48:55;22.30;21.80
20610;DHT22;10463;52.378;9.688;2023-04-03T11:51:44;22.30;21.80
20610;DHT22;10463;52.378;9.688;2023-04-03T11:54:48;22.30;21.80
20610;DHT22;10463;52.378;9.688;2023-04-03T12:01:03;22.30;21.80
20610;DHT22;10463;52.378;9.688;2023-04-03T12:04:09;22.30;21.80
20610;DHT22;10463;52.378;9.688;2023-04-03T12:07:16;22.30;21.90
20610;DHT22;10463;52.378;9.688;2023-04-03T12:10:18;22.40;22.00
20610;DHT22;10463;52.378;9.688;2023-04-03T12:13:15;22.40;22.00
20610;DHT22;10463;52.378;9.688;2023-04-03T12:16:02;22.40;22.00
20610;DHT22;10463;52.378;9.688;2023-04-03T12:18:59;22.40;22.00
20610;DHT22;10463;52.378;9.688;2023-04-03T12:22:18;22.50;22.00
20610;DHT22;10463;52.378;9.688;2023-04-03T12:28:28;22.50;22.00
20610;DHT22;10463;52.378;9.688;2023-04-03T12:31:13;22.50;22.00
20610;DHT22;10463;52.378;9.688;2023-04-03T12:34:12;22.60;22.10
20610;DHT22;10463;52.378;9.688;2023-04-03T12:37:06;22.60;22.10
20610;DHT22;10463;52.378;9.688;2023-04-03T12:40:05;22.60;22.10
20610;DHT22;10463;52.378;9.688;2023-04-03T12:43:26;22.60;22.20
20610;DHT22;10463;52.378;9.688;2023-04-03T12:46:19;22.70;22.30
20610;DHT22;10463;52.378;9.688;2023-04-03T12:49:35;22.70;22.30
20610;DHT22;10463;52.378;9.688;2023-04-03T12:52:41;22.70;22.30
20610;DHT22;10463;52.378;9.688;2023-04-03T12:55:32;22.80;22.40
20610;DHT22;10463;52.378;9.688;2023-04-03T12:58:39;22.80;22.40
20610;DHT22;10463;52.378;9.688;2023-04-03T13:01:27;22.90;22.50
20610;DHT22;10463;52.378;9.688;2023-04-03T13:04:15;22.90;22.50
20610;DHT22;10463;52.378;9.688;2023-04-03T13:07:00;22.90;22.60
20610;DHT22;10463;52.378;9.688;2023-04-03T13:10:00;22.90;22.60
20610;DHT22;10463;52.378;9.688;2023-04-03T13:12:49;23.00;22.60
20610;DHT22;10463;52.378;9.688;2023-04-03T13:15:44;23.10;22.60
20610;DHT22;10463;52.378;9.688;2023-04-03T13:18:32;23.10;22.50
20610;DHT22;10463;52.378;9.688;2023-04-03T13:21:20;23.10;22.40
20610;DHT22;10463;52.378;9.688;2023-04-03T13:24:06;23.20;22.50
20610;DHT22;10463;52.378;9.688;2023-04-03T13:26:51;23.20;22.40
20610;DHT22;10463;52.378;9.688;2023-04-03T13:29:38;23.20;22.40
20610;DHT22;10463;52.378;9.688;2023-04-03T13:32:27;23.30;22.50
20610;DHT22;10463;52.378;9.688;2023-04-03T13:35:32;23.30;22.50
20610;DHT22;10463;52.378;9.688;2023-04-03T13:38:24;23.40;22.70
20610;DHT22;10463;52.378;9.688;2023-04-03T13:41:26;23.40;22.70
20610;DHT22;10463;52.378;9.688;2023-04-03T13:44:32;23.40;22.50
20610;DHT22;10463;52.378;9.688;2023-04-03T13:47:20;23.50;22.50
20610;DHT22;10463;52.378;9.688;2023-04-03T13:50:17;23.50;22.40
20610;DHT22;10463;52.378;9.688;2023-04-03T13:53:11;23.60;22.40
20610;DHT22;10463;52.378;9.688;2023-04-03T13:56:05;23.60;22.50
20610;DHT22;10463;52.378;9.688;2023-04-03T13:59:00;23.60;22.40
20610;DHT22;10463;52.378;9.688;2023-04-03T14:01:49;23.60;22.40
20610;DHT22;10463;52.378;9.688;2023-04-03T14:04:48;23.70;22.50
20610;DHT22;10463;52.378;9.688;2023-04-03T14:07:35;23.70;22.40
20610;DHT22;10463;52.378;9.688;2023-04-03T14:10:20;23.70;22.40
20610;DHT22;10463;52.378;9.688;2023-04-03T14:13:05;23.70;22.40
20610;DHT22;10463;52.378;9.688;2023-04-03T14:15:49;23.80;22.50
20610;DHT22;10463;52.378;9.688;2023-04-03T14:18:35;23.80;22.40
20610;DHT22;10463;52.378;9.688;2023-04-03T14:21:23;23.80;22.40
20610;DHT22;10463;52.378;9.688;2023-04-03T14:24:09;23.80;22.40
20610;DHT22;10463;52.378;9.688;2023-04-03T14:26:55;23.90;22.40
20610;DHT22;10463;52.378;9.688;2023-04-03T14:29:41;23.90;22.40
20610;DHT22;10463;52.378;9.688;2023-04-03T14:32:26;23.90;22.30
20610;DHT22;10463;52.378;9.688;2023-04-03T14:35:11;23.90;22.30
20610;DHT22;10463;52.378;9.688;2023-04-03T14:37:56;24.00;22.20
20610;DHT22;10463;52.378;9.688;2023-04-03T14:40:42;24.00;22.00
20610;DHT22;10463;52.378;9.688;2023-04-03T14:43:27;24.10;21.90
20610;DHT22;10463;52.378;9.688;2023-04-03T14:46:15;24.10;21.80
20610;DHT22;10463;52.378;9.688;2023-04-03T14:49:01;24.10;21.80
20610;DHT22;10463;52.378;9.688;2023-04-03T14:51:46;24.10;21.80
20610;DHT22;10463;52.378;9.688;2023-04-03T14:54:31;24.10;21.70
20610;DHT22;10463;52.378;9.688;2023-04-03T14:57:17;24.20;21.80
20610;DHT22;10463;52.378;9.688;2023-04-03T15:00:06;24.20;21.70
20610;DHT22;10463;52.378;9.688;2023-04-03T15:02:51;24.20;21.70
20610;DHT22;10463;52.378;9.688;2023-04-03T15:05:36;24.20;21.70
20610;DHT22;10463;52.378;9.688;2023-04-03T15:08:24;24.20;21.60
20610;DHT22;10463;52.378;9.688;2023-04-03T15:11:11;24.30;21.50
20610;DHT22;10463;52.378;9.688;2023-04-03T15:13:57;24.30;21.40
20610;DHT22;10463;52.378;9.688;2023-04-03T15:16:42;24.30;21.40
20610;DHT22;10463;52.378;9.688;2023-04-03T15:19:27;24.30;21.80
20610;DHT22;10463;52.378;9.688;2023-04-03T15:22:16;24.30;21.20
20610;DHT22;10463;52.378;9.688;2023-04-03T15:25:01;24.30;21.20
20610;DHT22;10463;52.378;9.688;2023-04-03T15:27:47;24.40;21.30
20610;DHT22;10463;52.378;9.688;2023-04-03T15:30:36;24.30;21.20
20610;DHT22;10463;52.378;9.688;2023-04-03T15:33:22;24.30;21.30
20610;DHT22;10463;52.378;9.688;2023-04-03T15:36:08;24.30;21.30
20610;DHT22;10463;52.378;9.688;2023-04-03T15:38:52;24.30;21.30
20610;DHT22;10463;52.378;9.688;2023-04-03T15:41:37;24.30;21.20
20610;DHT22;10463;52.378;9.688;2023-04-03T15:44:22;24.30;21.30
20610;DHT22;10463;52.378;9.688;2023-04-03T15:47:08;24.40;21.70
20610;DHT22;10463;52.378;9.688;2023-04-03T15:49:53;24.30;21.20
20610;DHT22;10463;52.378;9.688;2023-04-03T15:52:39;24.40;21.20
20610;DHT22;10463;52.378;9.688;2023-04-03T15:55:25;24.30;21.20
20610;DHT22;10463;52.378;9.688;2023-04-03T15:58:11;24.40;21.30
20610;DHT22;10463;52.378;9.688;2023-04-03T16:00:56;24.30;21.30
20610;DHT22;10463;52.378;9.688;2023-04-03T16:03:42;24.40;21.40
20610;DHT22;10463;52.378;9.688;2023-04-03T16:06:29;24.40;21.40
20610;DHT22;10463;52.378;9.688;2023-04-03T16:09:15;24.40;21.50
20610;DHT22;10463;52.378;9.688;2023-04-03T16:12:00;24.30;21.40
20610;DHT22;10463;52.378;9.688;2023-04-03T16:14:45;24.40;21.40
20610;DHT22;10463;52.378;9.688;2023-04-03T16:17:31;24.30;21.30
20610;DHT22;10463;52.378;9.688;2023-04-03T16:20:18;24.30;21.30
20610;DHT22;10463;52.378;9.688;2023-04-03T16:23:04;24.30;21.30
20610;DHT22;10463;52.378;9.688;2023-04-03T16:25:49;24.30;21.40
20610;DHT22;10463;52.378;9.688;2023-04-03T16:28:34;24.30;21.40
20610;DHT22;10463;52.378;9.688;2023-04-03T16:31:20;24.30;21.40
20610;DHT22;10463;52.378;9.688;2023-04-03T16:34:05;24.30;21.40
20610;DHT22;10463;52.378;9.688;2023-04-03T16:36:51;24.30;21.40
20610;DHT22;10463;52.378;9.688;2023-04-03T16:39:37;24.30;21.40
20610;DHT22;10463;52.378;9.688;2023-04-03T16:42:21;24.30;21.40
20610;DHT22;10463;52.378;9.688;2023-04-03T16:45:07;24.20;21.30
20610;DHT22;10463;52.378;9.688;2023-04-03T16:47:53;24.30;21.40
20610;DHT22;10463;52.378;9.688;2023-04-03T16:50:37;24.20;21.30
20610;DHT22;10463;52.378;9.688;2023-04-03T16:53:24;24.20;21.30
20610;DHT22;10463;52.378;9.688;2023-04-03T16:56:09;24.20;21.30
20610;DHT22;10463;52.378;9.688;2023-04-03T16:58:54;24.20;21.30
20610;DHT22;10463;52.378;9.688;2023-04-03T17:01:39;24.20;21.30
20610;DHT22;10463;52.378;9.688;2023-04-03T17:04:25;24.20;21.30
20610;DHT22;10463;52.378;9.688;2023-04-03T17:07:11;24.20;21.30
20610;DHT22;10463;52.378;9.688;2023-04-03T17:09:56;24.20;21.30
20610;DHT22;10463;52.378;9.688;2023-04-03T17:12:42;24.10;21.20
20610;DHT22;10463;52.378;9.688;2023-04-03T17:15:26;24.10;21.20
20610;DHT22;10463;52.378;9.688;2023-04-03T17:18:11;24.10;21.20
20610;DHT22;10463;52.378;9.688;2023-04-03T17:20:56;24.10;21.20
20610;DHT22;10463;52.378;9.688;2023-04-03T17:23:43;24.10;21.20
20610;DHT22;10463;52.378;9.688;2023-04-03T17:26:30;24.10;21.20
20610;DHT22;10463;52.378;9.688;2023-04-03T17:29:14;24.10;21.20
20610;DHT22;10463;52.378;9.688;2023-04-03T17:31:59;24.10;21.20
20610;DHT22;10463;52.378;9.688;2023-04-03T17:34:45;24.00;21.10
20610;DHT22;10463;52.378;9.688;2023-04-03T17:37:30;24.10;21.20
20610;DHT22;10463;52.378;9.688;2023-04-03T17:40:15;24.00;21.00
20610;DHT22;10463;52.378;9.688;2023-04-03T17:43:03;24.00;21.00
20610;DHT22;10463;52.378;9.688;2023-04-03T17:45:48;24.00;21.10
20610;DHT22;10463;52.378;9.688;2023-04-03T17:48:34;24.00;21.10